sensor_id;sensor_type;location;lat;lon;timestamp;P1;durP1;ratioP1;P2;durP2;ratioP2
2866;SDS011;1441;48.886;8.728;2023-08-31T00:01:47;5.40;;;2.40;;
2866;SDS011;1441;48.886;8.728;2023-08-31T00:04:13;3.43;;;2.40;;
2866;SDS011;1441;48.886;8.728;2023-08-31T00:06:43;14.37;;;2.97;;
2866;SDS011;1441;48.886;8.728;2023-08-31T00:09:12;9.03;;;2.47;;
2866;SDS011;1441;48.886;8.728;2023-08-31T00:11:37;15.57;;;2.50;;
2866;SDS011;1441;48.886;8.728;2023-08-31T00:14:03;12.17;;;2.30;;
2866;SDS011;1441;48.886;8.728;2023-08-31T00:16:29;4.53;;;2.50;;
2866;SDS011;1441;48.886;8.728;2023-08-31T00:18:58;7.47;;;3.03;;
2866;SDS011;1441;48.886;8.728;2023-08-31T00:21:24;5.47;;;2.93;;
2866;SDS011;1441;48.886;8.728;2023-08-31T00:23:50;4.20;;;2.37;;
2866;SDS011;1441;48.886;8.728;2023-08-31T00:26:15;6.80;;;2.80;;
2866;SDS011;1441;48.886;8.728;2023-08-31T00:28:41;7.40;;;2.93;;
2866;SDS011;1441;48.886;8.728;2023-08-31T00:31:10;2.90;;;2.40;;
2866;SDS011;1441;48.886;8.728;2023-08-31T00:33:37;5.43;;;2.17;;
2866;SDS011;1441;48.886;8.728;2023-08-31T00:36:03;6.27;;;3.00;;
2866;SDS011;1441;48.886;8.728;2023-08-31T00:38:30;2.93;;;2.70;;
2866;SDS011;1441;48.886;8.728;2023-08-31T00:40:56;5.27;;;2.80;;
2866;SDS011;1441;48.886;8.728;2023-08-31T00:43:21;3.50;;;2.67;;
2866;SDS011;1441;48.886;8.728;2023-08-31T00:45:51;3.93;;;2.23;;
2866;SDS011;1441;48.886;8.728;2023-08-31T00:48:21;4.10;;;2.57;;
2866;SDS011;1441;48.886;8.728;2023-08-31T00:50:47;7.20;;;3.00;;
2866;SDS011;1441;48.886;8.728;2023-08-31T00:53:14;9.73;;;2.80;;
2866;SDS011;1441;48.886;8.728;2023-08-31T00:55:41;7.10;;;3.00;;
2866;SDS011;1441;48.886;8.728;2023-08-31T00:58:08;10.80;;;3.03;;
2866;SDS011;1441;48.886;8.728;2023-08-31T01:00:46;9.53;;;3.20;;
2866;SDS011;1441;48.886;8.728;2023-08-31T01:03:23;11.43;;;2.90;;
2866;SDS011;1441;48.886;8.728;2023-08-31T01:11:49;4.20;;;2.73;;
2866;SDS011;1441;48.886;8.728;2023-08-31T01:14:25;6.43;;;3.30;;
2866;SDS011;1441;48.886;8.728;2023-08-31T01:16:57;12.00;;;2.90;;
2866;SDS011;1441;48.886;8.728;2023-08-31T01:22:13;6.37;;;3.03;;
2866;SDS011;1441;48.886;8.728;2023-08-31T01:24:43;12.00;;;3.70;;
2866;SDS011;1441;48.886;8.728;2023-08-31T01:27:09;9.07;;;2.50;;
2866;SDS011;1441;48.886;8.728;2023-08-31T01:29:35;4.20;;;2.70;;
2866;SDS011;1441;48.886;8.728;2023-08-31T01:32:04;7.63;;;2.77;;
2866;SDS011;1441;48.886;8.728;2023-08-31T01:34:30;2.70;;;2.50;;
2866;SDS011;1441;48.886;8.728;2023-08-31T01:36:58;7.93;;;2.63;;
2866;SDS011;1441;48.886;8.728;2023-08-31T01:39:31;3.00;;;2.80;;
2866;SDS011;1441;48.886;8.728;2023-08-31T01:42:03;4.90;;;2.50;;
2866;SDS011;1441;48.886;8.728;2023-08-31T01:44:32;3.43;;;2.43;;
2866;SDS011;1441;48.886;8.728;2023-08-31T01:47:03;7.27;;;2.87;;
2866;SDS011;1441;48.886;8.728;2023-08-31T01:49:37;7.70;;;2.67;;
2866;SDS011;1441;48.886;8.728;2023-08-31T01:52:06;7.13;;;2.80;;
2866;SDS011;1441;48.886;8.728;2023-08-31T01:54:32;4.40;;;2.40;;
2866;SDS011;1441;48.886;8.728;2023-08-31T01:56:58;5.97;;;3.07;;
2866;SDS011;1441;48.886;8.728;2023-08-31T01:59:24;5.90;;;2.90;;
2866;SDS011;1441;48.886;8.728;2023-08-31T02:01:49;10.10;;;3.10;;
2866;SDS011;1441;48.886;8.728;2023-08-31T02:04:15;3.77;;;2.40;;
2866;SDS011;1441;48.886;8.728;2023-08-31T02:06:40;5.17;;;2.50;;
2866;SDS011;1441;48.886;8.728;2023-08-31T02:09:06;5.87;;;2.43;;
2866;SDS011;1441;48.886;8.728;2023-08-31T02:11:32;5.60;;;2.37;;
2866;SDS011;1441;48.886;8.728;2023-08-31T02:14:00;3.30;;;2.83;;
2866;SDS011;1441;48.886;8.728;2023-08-31T02:16:26;5.30;;;2.73;;
2866;SDS011;1441;48.886;8.728;2023-08-31T02:18:51;4.20;;;2.57;;
2866;SDS011;1441;48.886;8.728;2023-08-31T02:21:17;7.13;;;3.23;;
2866;SDS011;1441;48.886;8.728;2023-08-31T02:23:43;8.13;;;2.23;;
2866;SDS011;1441;48.886;8.728;2023-08-31T02:26:11;4.63;;;2.90;;
2866;SDS011;1441;48.886;8.728;2023-08-31T02:28:37;6.20;;;2.57;;
2866;SDS011;1441;48.886;8.728;2023-08-31T02:31:02;3.17;;;2.03;;
2866;SDS011;1441;48.886;8.728;2023-08-31T02:33:28;3.63;;;2.27;;
2866;SDS011;1441;48.886;8.728;2023-08-31T02:35:54;4.37;;;2.33;;
2866;SDS011;1441;48.886;8.728;2023-08-31T02:38:19;5.73;;;2.50;;
2866;SDS011;1441;48.886;8.728;2023-08-31T02:40:48;5.77;;;2.37;;
2866;SDS011;1441;48.886;8.728;2023-08-31T02:43:14;4.63;;;2.23;;
2866;SDS011;1441;48.886;8.728;2023-08-31T02:45:40;3.33;;;2.40;;
2866;SDS011;1441;48.886;8.728;2023-08-31T02:48:06;1.90;;;1.80;;
2866;SDS011;1441;48.886;8.728;2023-08-31T02:50:33;8.33;;;2.53;;
2866;SDS011;1441;48.886;8.728;2023-08-31T02:52:59;5.20;;;2.40;;
2866;SDS011;1441;48.886;8.728;2023-08-31T02:55:25;6.23;;;2.20;;
2866;SDS011;1441;48.886;8.728;2023-08-31T02:57:51;5.27;;;2.03;;
2866;SDS011;1441;48.886;8.728;2023-08-31T03:00:16;2.93;;;1.83;;
2866;SDS011;1441;48.886;8.728;2023-08-31T03:02:46;4.17;;;2.47;;
2866;SDS011;1441;48.886;8.728;2023-08-31T03:05:12;5.57;;;2.77;;
2866;SDS011;1441;48.886;8.728;2023-08-31T03:07:38;4.90;;;2.20;;
2866;SDS011;1441;48.886;8.728;2023-08-31T03:10:03;7.73;;;1.90;;
2866;SDS011;1441;48.886;8.728;2023-08-31T03:12:29;3.33;;;1.90;;
2866;SDS011;1441;48.886;8.728;2023-08-31T03:14:55;5.50;;;2.73;;
2866;SDS011;1441;48.886;8.728;2023-08-31T03:17:20;6.17;;;2.63;;
2866;SDS011;1441;48.886;8.728;2023-08-31T03:19:46;4.67;;;2.10;;
2866;SDS011;1441;48.886;8.728;2023-08-31T03:22:11;2.80;;;2.57;;
2866;SDS011;1441;48.886;8.728;2023-08-31T03:24:37;2.87;;;2.30;;
2866;SDS011;1441;48.886;8.728;2023-08-31T03:27:03;3.60;;;2.40;;
2866;SDS011;1441;48.886;8.728;2023-08-31T03:29:28;5.33;;;2.50;;
2866;SDS011;1441;48.886;8.728;2023-08-31T03:31:54;4.57;;;3.00;;
2866;SDS011;1441;48.886;8.728;2023-08-31T03:34:20;7.90;;;2.20;;
2866;SDS011;1441;48.886;8.728;2023-08-31T03:36:45;4.10;;;2.30;;
2866;SDS011;1441;48.886;8.728;2023-08-31T03:39:11;5.87;;;2.40;;
2866;SDS011;1441;48.886;8.728;2023-08-31T03:41:36;7.60;;;2.00;;
2866;SDS011;1441;48.886;8.728;2023-08-31T03:44:02;9.93;;;2.10;;
2866;SDS011;1441;48.886;8.728;2023-08-31T03:46:28;4.57;;;2.20;;
2866;SDS011;1441;48.886;8.728;2023-08-31T03:48:53;7.13;;;3.03;;
2866;SDS011;1441;48.886;8.728;2023-08-31T03:51:19;6.90;;;3.17;;
2866;SDS011;1441;48.886;8.728;2023-08-31T03:53:44;2.20;;;2.00;;
2866;SDS011;1441;48.886;8.728;2023-08-31T03:56:10;3.83;;;1.90;;
2866;SDS011;1441;48.886;8.728;2023-08-31T03:58:36;3.90;;;2.50;;
2866;SDS011;1441;48.886;8.728;2023-08-31T04:01:02;10.33;;;2.10;;
2866;SDS011;1441;48.886;8.728;2023-08-31T04:03:28;3.50;;;1.97;;
2866;SDS011;1441;48.886;8.728;2023-08-31T04:05:56;4.40;;;2.17;;
2866;SDS011;1441;48.886;8.728;2023-08-31T04:08:22;4.10;;;2.43;;
2866;SDS011;1441;48.886;8.728;2023-08-31T04:10:47;6.00;;;2.00;;
2866;SDS011;1441;48.886;8.728;2023-08-31T04:13:13;5.00;;;2.20;;
2866;SDS011;1441;48.886;8.728;2023-08-31T04:15:38;3.97;;;2.60;;
2866;SDS011;1441;48.886;8.728;2023-08-31T04:18:04;7.90;;;2.30;;
2866;SDS011;1441;48.886;8.728;2023-08-31T04:20:30;7.87;;;2.73;;
2866;SDS011;1441;48.886;8.728;2023-08-31T04:22:57;5.57;;;2.03;;
2866;SDS011;1441;48.886;8.728;2023-08-31T04:25:23;6.17;;;2.33;;
2866;SDS011;1441;48.886;8.728;2023-08-31T04:27:48;8.87;;;2.37;;
2866;SDS011;1441;48.886;8.728;2023-08-31T04:30:14;9.20;;;3.00;;
2866;SDS011;1441;48.886;8.728;2023-08-31T04:32:40;6.90;;;1.80;;
2866;SDS011;1441;48.886;8.728;2023-08-31T04:35:06;2.50;;;2.00;;
2866;SDS011;1441;48.886;8.728;2023-08-31T04:37:32;5.77;;;2.20;;
2866;SDS011;1441;48.886;8.728;2023-08-31T04:39:58;7.27;;;2.53;;
2866;SDS011;1441;48.886;8.728;2023-08-31T04:42:24;8.80;;;2.20;;
2866;SDS011;1441;48.886;8.728;2023-08-31T04:44:49;8.27;;;1.70;;
2866;SDS011;1441;48.886;8.728;2023-08-31T04:47:15;4.13;;;2.43;;
2866;SDS011;1441;48.886;8.728;2023-08-31T04:49:41;3.47;;;2.20;;
2866;SDS011;1441;48.886;8.728;2023-08-31T04:52:07;7.83;;;2.23;;
2866;SDS011;1441;48.886;8.728;2023-08-31T04:54:33;8.93;;;2.07;;
2866;SDS011;1441;48.886;8.728;2023-08-31T04:56:58;11.07;;;2.80;;
2866;SDS011;1441;48.886;8.728;2023-08-31T04:59:24;5.03;;;2.30;;
2866;SDS011;1441;48.886;8.728;2023-08-31T05:01:49;5.00;;;2.23;;
2866;SDS011;1441;48.886;8.728;2023-08-31T05:04:15;3.30;;;2.20;;
2866;SDS011;1441;48.886;8.728;2023-08-31T05:06:41;2.43;;;2.23;;
2866;SDS011;1441;48.886;8.728;2023-08-31T05:09:06;4.27;;;1.93;;
2866;SDS011;1441;48.886;8.728;2023-08-31T05:11:33;5.23;;;2.60;;
2866;SDS011;1441;48.886;8.728;2023-08-31T05:13:58;2.70;;;1.70;;
2866;SDS011;1441;48.886;8.728;2023-08-31T05:16:24;3.83;;;2.30;;
2866;SDS011;1441;48.886;8.728;2023-08-31T05:18:49;13.00;;;2.27;;
2866;SDS011;1441;48.886;8.728;2023-08-31T05:21:15;6.23;;;1.63;;
2866;SDS011;1441;48.886;8.728;2023-08-31T05:23:40;11.10;;;2.00;;
2866;SDS011;1441;48.886;8.728;2023-08-31T05:26:06;8.27;;;2.13;;
2866;SDS011;1441;48.886;8.728;2023-08-31T05:28:32;8.10;;;2.40;;
2866;SDS011;1441;48.886;8.728;2023-08-31T05:30:59;8.40;;;2.67;;
2866;SDS011;1441;48.886;8.728;2023-08-31T05:33:25;5.87;;;2.97;;
2866;SDS011;1441;48.886;8.728;2023-08-31T05:35:52;3.13;;;2.20;;
2866;SDS011;1441;48.886;8.728;2023-08-31T05:38:18;8.67;;;2.10;;
2866;SDS011;1441;48.886;8.728;2023-08-31T05:40:44;3.83;;;1.83;;
2866;SDS011;1441;48.886;8.728;2023-08-31T05:43:11;1.90;;;1.43;;
2866;SDS011;1441;48.886;8.728;2023-08-31T05:45:37;7.80;;;1.60;;
2866;SDS011;1441;48.886;8.728;2023-08-31T05:48:03;5.80;;;2.00;;
2866;SDS011;1441;48.886;8.728;2023-08-31T05:50:29;3.77;;;1.63;;
2866;SDS011;1441;48.886;8.728;2023-08-31T05:52:55;3.70;;;1.20;;
2866;SDS011;1441;48.886;8.728;2023-08-31T05:55:21;2.97;;;1.37;;
2866;SDS011;1441;48.886;8.728;2023-08-31T05:57:47;2.60;;;1.60;;
2866;SDS011;1441;48.886;8.728;2023-08-31T06:00:12;4.40;;;1.40;;
2866;SDS011;1441;48.886;8.728;2023-08-31T06:02:38;4.90;;;1.77;;
2866;SDS011;1441;48.886;8.728;2023-08-31T06:05:04;2.30;;;1.53;;
2866;SDS011;1441;48.886;8.728;2023-08-31T06:07:30;8.00;;;1.47;;
2866;SDS011;1441;48.886;8.728;2023-08-31T06:09:56;5.97;;;1.73;;
2866;SDS011;1441;48.886;8.728;2023-08-31T06:12:22;14.23;;;2.13;;
2866;SDS011;1441;48.886;8.728;2023-08-31T06:14:48;3.03;;;1.40;;
2866;SDS011;1441;48.886;8.728;2023-08-31T06:17:13;5.43;;;1.60;;
2866;SDS011;1441;48.886;8.728;2023-08-31T06:19:39;9.83;;;1.67;;
2866;SDS011;1441;48.886;8.728;2023-08-31T06:22:06;5.33;;;1.60;;
2866;SDS011;1441;48.886;8.728;2023-08-31T06:24:32;3.10;;;1.80;;
2866;SDS011;1441;48.886;8.728;2023-08-31T06:26:58;7.10;;;2.73;;
2866;SDS011;1441;48.886;8.728;2023-08-31T06:29:24;4.10;;;1.60;;
2866;SDS011;1441;48.886;8.728;2023-08-31T06:31:50;4.10;;;1.73;;
2866;SDS011;1441;48.886;8.728;2023-08-31T06:34:16;6.83;;;1.40;;
2866;SDS011;1441;48.886;8.728;2023-08-31T06:36:41;1.90;;;1.23;;
2866;SDS011;1441;48.886;8.728;2023-08-31T06:39:07;9.93;;;1.03;;
2866;SDS011;1441;48.886;8.728;2023-08-31T06:41:32;4.33;;;1.23;;
2866;SDS011;1441;48.886;8.728;2023-08-31T06:43:58;2.30;;;1.60;;
2866;SDS011;1441;48.886;8.728;2023-08-31T06:46:24;2.07;;;1.23;;
2866;SDS011;1441;48.886;8.728;2023-08-31T06:48:49;1.20;;;1.10;;
2866;SDS011;1441;48.886;8.728;2023-08-31T06:51:15;1.93;;;1.03;;
2866;SDS011;1441;48.886;8.728;2023-08-31T06:53:44;4.70;;;1.50;;
2866;SDS011;1441;48.886;8.728;2023-08-31T06:56:09;4.43;;;1.50;;
2866;SDS011;1441;48.886;8.728;2023-08-31T06:58:35;1.83;;;1.10;;
2866;SDS011;1441;48.886;8.728;2023-08-31T07:01:01;8.10;;;0.90;;
2866;SDS011;1441;48.886;8.728;2023-08-31T07:03:30;3.07;;;1.33;;
2866;SDS011;1441;48.886;8.728;2023-08-31T07:05:56;2.67;;;1.40;;
2866;SDS011;1441;48.886;8.728;2023-08-31T07:08:21;2.40;;;1.20;;
2866;SDS011;1441;48.886;8.728;2023-08-31T07:10:49;4.80;;;1.20;;
2866;SDS011;1441;48.886;8.728;2023-08-31T07:13:15;4.10;;;1.20;;
2866;SDS011;1441;48.886;8.728;2023-08-31T07:15:40;5.00;;;1.37;;
2866;SDS011;1441;48.886;8.728;2023-08-31T07:18:06;2.80;;;1.30;;
2866;SDS011;1441;48.886;8.728;2023-08-31T07:20:32;1.80;;;1.33;;
2866;SDS011;1441;48.886;8.728;2023-08-31T07:22:58;2.00;;;1.27;;
2866;SDS011;1441;48.886;8.728;2023-08-31T07:25:24;2.47;;;1.00;;
2866;SDS011;1441;48.886;8.728;2023-08-31T07:27:50;1.53;;;1.10;;
2866;SDS011;1441;48.886;8.728;2023-08-31T07:30:16;3.33;;;1.37;;
2866;SDS011;1441;48.886;8.728;2023-08-31T07:32:41;2.20;;;1.50;;
2866;SDS011;1441;48.886;8.728;2023-08-31T07:35:07;5.50;;;1.50;;
2866;SDS011;1441;48.886;8.728;2023-08-31T07:37:33;2.97;;;1.67;;
2866;SDS011;1441;48.886;8.728;2023-08-31T07:39:59;7.70;;;1.60;;
2866;SDS011;1441;48.886;8.728;2023-08-31T07:42:24;2.77;;;1.60;;
2866;SDS011;1441;48.886;8.728;2023-08-31T07:44:50;3.43;;;1.53;;
2866;SDS011;1441;48.886;8.728;2023-08-31T07:47:16;4.40;;;1.47;;
2866;SDS011;1441;48.886;8.728;2023-08-31T07:49:41;1.27;;;1.17;;
2866;SDS011;1441;48.886;8.728;2023-08-31T07:52:07;2.20;;;1.30;;
2866;SDS011;1441;48.886;8.728;2023-08-31T07:54:32;3.27;;;1.57;;
2866;SDS011;1441;48.886;8.728;2023-08-31T07:56:58;1.93;;;1.53;;
2866;SDS011;1441;48.886;8.728;2023-08-31T07:59:25;6.53;;;1.50;;
2866;SDS011;1441;48.886;8.728;2023-08-31T08:01:50;2.17;;;1.20;;
2866;SDS011;1441;48.886;8.728;2023-08-31T08:04:16;3.60;;;1.60;;
2866;SDS011;1441;48.886;8.728;2023-08-31T08:06:44;6.77;;;2.10;;
2866;SDS011;1441;48.886;8.728;2023-08-31T08:09:10;3.20;;;1.47;;
2866;SDS011;1441;48.886;8.728;2023-08-31T08:11:37;3.43;;;1.70;;
2866;SDS011;1441;48.886;8.728;2023-08-31T08:14:02;4.00;;;1.33;;
2866;SDS011;1441;48.886;8.728;2023-08-31T08:16:28;1.40;;;1.30;;
2866;SDS011;1441;48.886;8.728;2023-08-31T08:18:54;4.60;;;1.60;;
2866;SDS011;1441;48.886;8.728;2023-08-31T08:21:19;1.57;;;1.47;;
2866;SDS011;1441;48.886;8.728;2023-08-31T08:23:45;3.23;;;1.40;;
2866;SDS011;1441;48.886;8.728;2023-08-31T08:26:10;5.13;;;1.30;;
2866;SDS011;1441;48.886;8.728;2023-08-31T08:28:36;2.90;;;1.90;;
2866;SDS011;1441;48.886;8.728;2023-08-31T08:31:01;4.50;;;1.33;;
2866;SDS011;1441;48.886;8.728;2023-08-31T08:33:28;2.13;;;1.20;;
2866;SDS011;1441;48.886;8.728;2023-08-31T08:35:57;1.53;;;1.30;;
2866;SDS011;1441;48.886;8.728;2023-08-31T08:38:23;1.23;;;1.10;;
2866;SDS011;1441;48.886;8.728;2023-08-31T08:40:49;3.10;;;1.20;;
2866;SDS011;1441;48.886;8.728;2023-08-31T08:43:15;4.37;;;2.00;;
2866;SDS011;1441;48.886;8.728;2023-08-31T08:45:42;1.80;;;1.20;;
2866;SDS011;1441;48.886;8.728;2023-08-31T08:48:11;3.23;;;1.63;;
2866;SDS011;1441;48.886;8.728;2023-08-31T08:50:38;3.43;;;1.60;;
2866;SDS011;1441;48.886;8.728;2023-08-31T08:53:05;1.53;;;1.40;;
2866;SDS011;1441;48.886;8.728;2023-08-31T08:55:31;2.13;;;0.97;;
2866;SDS011;1441;48.886;8.728;2023-08-31T08:57:58;3.63;;;1.80;;
2866;SDS011;1441;48.886;8.728;2023-08-31T09:00:25;4.30;;;2.00;;
2866;SDS011;1441;48.886;8.728;2023-08-31T09:02:52;3.87;;;1.50;;
2866;SDS011;1441;48.886;8.728;2023-08-31T09:05:17;5.90;;;1.50;;
2866;SDS011;1441;48.886;8.728;2023-08-31T09:07:59;3.50;;;1.43;;
2866;SDS011;1441;48.886;8.728;2023-08-31T09:10:33;2.23;;;1.10;;
2866;SDS011;1441;48.886;8.728;2023-08-31T09:13:06;7.03;;;1.30;;
2866;SDS011;1441;48.886;8.728;2023-08-31T09:15:46;4.30;;;1.40;;
2866;SDS011;1441;48.886;8.728;2023-08-31T09:18:31;2.97;;;1.20;;
2866;SDS011;1441;48.886;8.728;2023-08-31T09:20:57;3.40;;;1.63;;
2866;SDS011;1441;48.886;8.728;2023-08-31T09:23:23;3.70;;;1.43;;
2866;SDS011;1441;48.886;8.728;2023-08-31T09:25:50;2.80;;;1.43;;
2866;SDS011;1441;48.886;8.728;2023-08-31T09:28:21;3.50;;;1.53;;
2866;SDS011;1441;48.886;8.728;2023-08-31T09:30:51;1.57;;;1.07;;
2866;SDS011;1441;48.886;8.728;2023-08-31T09:33:18;4.07;;;1.77;;
2866;SDS011;1441;48.886;8.728;2023-08-31T09:35:48;5.73;;;1.33;;
2866;SDS011;1441;48.886;8.728;2023-08-31T09:38:18;2.53;;;1.47;;
2866;SDS011;1441;48.886;8.728;2023-08-31T09:40:44;2.37;;;1.10;;
2866;SDS011;1441;48.886;8.728;2023-08-31T09:43:10;5.40;;;1.30;;
2866;SDS011;1441;48.886;8.728;2023-08-31T09:45:35;3.60;;;1.30;;
2866;SDS011;1441;48.886;8.728;2023-08-31T09:48:02;4.30;;;1.90;;
2866;SDS011;1441;48.886;8.728;2023-08-31T09:50:29;4.53;;;1.47;;
2866;SDS011;1441;48.886;8.728;2023-08-31T09:52:56;3.73;;;1.70;;
2866;SDS011;1441;48.886;8.728;2023-08-31T09:55:27;4.50;;;1.40;;
2866;SDS011;1441;48.886;8.728;2023-08-31T09:57:54;6.20;;;2.20;;
2866;SDS011;1441;48.886;8.728;2023-08-31T10:00:22;4.50;;;2.03;;
2866;SDS011;1441;48.886;8.728;2023-08-31T10:02:54;1.53;;;1.30;;
2866;SDS011;1441;48.886;8.728;2023-08-31T10:05:22;1.77;;;1.50;;
2866;SDS011;1441;48.886;8.728;2023-08-31T10:07:49;3.97;;;1.50;;
2866;SDS011;1441;48.886;8.728;2023-08-31T10:10:16;6.33;;;1.80;;
2866;SDS011;1441;48.886;8.728;2023-08-31T10:12:41;2.93;;;1.60;;
2866;SDS011;1441;48.886;8.728;2023-08-31T10:15:09;2.67;;;1.43;;
2866;SDS011;1441;48.886;8.728;2023-08-31T10:17:35;1.70;;;1.50;;
2866;SDS011;1441;48.886;8.728;2023-08-31T10:20:01;2.43;;;1.53;;
2866;SDS011;1441;48.886;8.728;2023-08-31T10:22:28;4.20;;;1.57;;
2866;SDS011;1441;48.886;8.728;2023-08-31T10:25:02;6.00;;;1.87;;
2866;SDS011;1441;48.886;8.728;2023-08-31T10:27:35;8.77;;;2.10;;
2866;SDS011;1441;48.886;8.728;2023-08-31T10:32:46;3.30;;;1.60;;
2866;SDS011;1441;48.886;8.728;2023-08-31T10:35:29;4.97;;;1.43;;
2866;SDS011;1441;48.886;8.728;2023-08-31T10:38:14;8.57;;;2.00;;
2866;SDS011;1441;48.886;8.728;2023-08-31T10:40:40;2.30;;;1.30;;
2866;SDS011;1441;48.886;8.728;2023-08-31T10:43:15;2.67;;;1.60;;
2866;SDS011;1441;48.886;8.728;2023-08-31T10:45:44;5.53;;;2.03;;
2866;SDS011;1441;48.886;8.728;2023-08-31T10:48:11;7.20;;;1.50;;
2866;SDS011;1441;48.886;8.728;2023-08-31T10:50:42;2.30;;;1.57;;
2866;SDS011;1441;48.886;8.728;2023-08-31T10:53:09;9.00;;;2.23;;
2866;SDS011;1441;48.886;8.728;2023-08-31T10:55:52;4.97;;;2.00;;
2866;SDS011;1441;48.886;8.728;2023-08-31T10:58:18;4.20;;;2.00;;
2866;SDS011;1441;48.886;8.728;2023-08-31T11:00:47;3.80;;;2.00;;
2866;SDS011;1441;48.886;8.728;2023-08-31T11:03:20;4.00;;;1.60;;
2866;SDS011;1441;48.886;8.728;2023-08-31T11:05:52;4.50;;;2.20;;
2866;SDS011;1441;48.886;8.728;2023-08-31T11:08:24;5.87;;;2.20;;
2866;SDS011;1441;48.886;8.728;2023-08-31T11:10:51;7.40;;;1.83;;
2866;SDS011;1441;48.886;8.728;2023-08-31T11:13:21;3.33;;;1.30;;
2866;SDS011;1441;48.886;8.728;2023-08-31T11:15:48;2.57;;;1.60;;
2866;SDS011;1441;48.886;8.728;2023-08-31T11:18:17;3.80;;;1.87;;
2866;SDS011;1441;48.886;8.728;2023-08-31T11:20:45;3.97;;;1.87;;
2866;SDS011;1441;48.886;8.728;2023-08-31T11:23:13;4.50;;;2.10;;
2866;SDS011;1441;48.886;8.728;2023-08-31T11:25:38;3.30;;;1.50;;
2866;SDS011;1441;48.886;8.728;2023-08-31T11:28:05;5.80;;;1.60;;
2866;SDS011;1441;48.886;8.728;2023-08-31T11:30:34;2.83;;;1.80;;
2866;SDS011;1441;48.886;8.728;2023-08-31T11:33:02;2.43;;;1.43;;
2866;SDS011;1441;48.886;8.728;2023-08-31T11:35:31;4.73;;;1.80;;
2866;SDS011;1441;48.886;8.728;2023-08-31T11:38:02;3.93;;;2.00;;
2866;SDS011;1441;48.886;8.728;2023-08-31T11:40:28;4.13;;;1.60;;
2866;SDS011;1441;48.886;8.728;2023-08-31T11:42:54;2.63;;;1.50;;
2866;SDS011;1441;48.886;8.728;2023-08-31T11:45:21;4.20;;;1.73;;
2866;SDS011;1441;48.886;8.728;2023-08-31T11:47:49;3.70;;;1.97;;
2866;SDS011;1441;48.886;8.728;2023-08-31T11:50:15;2.77;;;1.50;;
2866;SDS011;1441;48.886;8.728;2023-08-31T11:52:41;2.33;;;1.30;;
2866;SDS011;1441;48.886;8.728;2023-08-31T11:55:16;2.70;;;1.43;;
2866;SDS011;1441;48.886;8.728;2023-08-31T11:57:49;5.47;;;1.80;;
2866;SDS011;1441;48.886;8.728;2023-08-31T12:00:18;3.70;;;1.47;;
2866;SDS011;1441;48.886;8.728;2023-08-31T12:02:45;3.87;;;1.90;;
2866;SDS011;1441;48.886;8.728;2023-08-31T12:05:18;2.13;;;1.40;;
2866;SDS011;1441;48.886;8.728;2023-08-31T12:07:44;5.30;;;1.90;;
2866;SDS011;1441;48.886;8.728;2023-08-31T12:10:09;2.70;;;1.53;;
2866;SDS011;1441;48.886;8.728;2023-08-31T12:12:35;4.67;;;1.23;;
2866;SDS011;1441;48.886;8.728;2023-08-31T12:15:02;4.13;;;1.63;;
2866;SDS011;1441;48.886;8.728;2023-08-31T12:17:30;2.20;;;1.33;;
2866;SDS011;1441;48.886;8.728;2023-08-31T12:20:02;4.30;;;1.50;;
2866;SDS011;1441;48.886;8.728;2023-08-31T12:22:31;3.53;;;1.40;;
2866;SDS011;1441;48.886;8.728;2023-08-31T12:24:57;2.60;;;1.40;;
2866;SDS011;1441;48.886;8.728;2023-08-31T12:27:22;3.77;;;1.83;;
2866;SDS011;1441;48.886;8.728;2023-08-31T12:29:48;5.77;;;1.83;;
2866;SDS011;1441;48.886;8.728;2023-08-31T12:32:15;4.97;;;1.90;;
2866;SDS011;1441;48.886;8.728;2023-08-31T12:34:41;4.23;;;1.87;;
2866;SDS011;1441;48.886;8.728;2023-08-31T12:37:07;3.73;;;1.63;;
2866;SDS011;1441;48.886;8.728;2023-08-31T12:39:32;9.20;;;2.40;;
2866;SDS011;1441;48.886;8.728;2023-08-31T12:41:58;5.47;;;1.47;;
2866;SDS011;1441;48.886;8.728;2023-08-31T12:44:24;2.93;;;1.40;;
2866;SDS011;1441;48.886;8.728;2023-08-31T12:46:50;2.73;;;1.77;;
2866;SDS011;1441;48.886;8.728;2023-08-31T12:49:17;2.57;;;1.53;;
2866;SDS011;1441;48.886;8.728;2023-08-31T12:51:42;3.23;;;1.73;;
2866;SDS011;1441;48.886;8.728;2023-08-31T12:54:08;4.80;;;1.73;;
2866;SDS011;1441;48.886;8.728;2023-08-31T12:56:34;3.23;;;1.67;;
2866;SDS011;1441;48.886;8.728;2023-08-31T12:58:59;2.80;;;1.80;;
2866;SDS011;1441;48.886;8.728;2023-08-31T13:01:25;7.13;;;1.50;;
2866;SDS011;1441;48.886;8.728;2023-08-31T13:03:51;4.30;;;1.73;;
2866;SDS011;1441;48.886;8.728;2023-08-31T13:06:17;6.20;;;1.50;;
2866;SDS011;1441;48.886;8.728;2023-08-31T13:08:43;10.17;;;1.50;;
2866;SDS011;1441;48.886;8.728;2023-08-31T13:11:10;3.00;;;1.40;;
2866;SDS011;1441;48.886;8.728;2023-08-31T13:13:37;3.90;;;1.87;;
2866;SDS011;1441;48.886;8.728;2023-08-31T13:16:03;3.70;;;1.60;;
2866;SDS011;1441;48.886;8.728;2023-08-31T13:18:29;5.90;;;1.80;;
2866;SDS011;1441;48.886;8.728;2023-08-31T13:20:55;4.37;;;1.83;;
2866;SDS011;1441;48.886;8.728;2023-08-31T13:23:21;7.70;;;1.80;;
2866;SDS011;1441;48.886;8.728;2023-08-31T13:25:47;3.67;;;1.43;;
2866;SDS011;1441;48.886;8.728;2023-08-31T13:28:13;3.27;;;1.73;;
2866;SDS011;1441;48.886;8.728;2023-08-31T13:30:39;3.47;;;1.80;;
2866;SDS011;1441;48.886;8.728;2023-08-31T13:33:06;5.20;;;1.53;;
2866;SDS011;1441;48.886;8.728;2023-08-31T13:35:32;4.00;;;1.63;;
2866;SDS011;1441;48.886;8.728;2023-08-31T13:37:58;5.07;;;1.70;;
2866;SDS011;1441;48.886;8.728;2023-08-31T13:40:24;4.80;;;1.60;;
2866;SDS011;1441;48.886;8.728;2023-08-31T13:42:56;1.97;;;1.60;;
2866;SDS011;1441;48.886;8.728;2023-08-31T13:45:28;1.97;;;1.50;;
2866;SDS011;1441;48.886;8.728;2023-08-31T13:47:54;4.60;;;1.70;;
2866;SDS011;1441;48.886;8.728;2023-08-31T13:50:20;2.27;;;1.53;;
2866;SDS011;1441;48.886;8.728;2023-08-31T13:52:46;4.33;;;1.50;;
2866;SDS011;1441;48.886;8.728;2023-08-31T13:55:11;5.63;;;2.00;;
2866;SDS011;1441;48.886;8.728;2023-08-31T13:57:40;5.50;;;1.90;;
2866;SDS011;1441;48.886;8.728;2023-08-31T14:00:07;2.20;;;1.53;;
2866;SDS011;1441;48.886;8.728;2023-08-31T14:02:36;1.77;;;1.50;;
2866;SDS011;1441;48.886;8.728;2023-08-31T14:05:02;6.10;;;1.73;;
2866;SDS011;1441;48.886;8.728;2023-08-31T14:07:29;5.17;;;1.60;;
2866;SDS011;1441;48.886;8.728;2023-08-31T14:09:54;5.70;;;1.90;;
2866;SDS011;1441;48.886;8.728;2023-08-31T14:12:20;3.93;;;1.60;;
2866;SDS011;1441;48.886;8.728;2023-08-31T14:14:46;6.17;;;1.90;;
2866;SDS011;1441;48.886;8.728;2023-08-31T14:17:12;6.67;;;2.30;;
2866;SDS011;1441;48.886;8.728;2023-08-31T14:19:38;3.23;;;2.00;;
2866;SDS011;1441;48.886;8.728;2023-08-31T14:22:04;8.43;;;1.57;;
2866;SDS011;1441;48.886;8.728;2023-08-31T14:24:30;7.17;;;2.23;;
2866;SDS011;1441;48.886;8.728;2023-08-31T14:26:56;3.10;;;1.50;;
2866;SDS011;1441;48.886;8.728;2023-08-31T14:29:22;4.50;;;1.90;;
2866;SDS011;1441;48.886;8.728;2023-08-31T14:31:48;11.10;;;2.07;;
2866;SDS011;1441;48.886;8.728;2023-08-31T14:34:14;3.70;;;1.73;;
2866;SDS011;1441;48.886;8.728;2023-08-31T14:36:39;3.60;;;1.87;;
2866;SDS011;1441;48.886;8.728;2023-08-31T14:39:05;5.87;;;2.00;;
2866;SDS011;1441;48.886;8.728;2023-08-31T14:41:31;2.87;;;1.83;;
2866;SDS011;1441;48.886;8.728;2023-08-31T14:43:56;8.03;;;1.93;;
2866;SDS011;1441;48.886;8.728;2023-08-31T14:46:22;3.80;;;1.80;;
2866;SDS011;1441;48.886;8.728;2023-08-31T14:48:49;5.23;;;1.47;;
2866;SDS011;1441;48.886;8.728;2023-08-31T14:51:15;6.77;;;2.20;;
2866;SDS011;1441;48.886;8.728;2023-08-31T14:53:41;5.73;;;2.27;;
2866;SDS011;1441;48.886;8.728;2023-08-31T14:56:06;2.83;;;1.80;;
2866;SDS011;1441;48.886;8.728;2023-08-31T14:58:33;6.20;;;2.00;;
2866;SDS011;1441;48.886;8.728;2023-08-31T15:00:58;5.20;;;1.90;;
2866;SDS011;1441;48.886;8.728;2023-08-31T15:03:24;4.70;;;2.30;;
2866;SDS011;1441;48.886;8.728;2023-08-31T15:05:49;2.70;;;1.67;;
2866;SDS011;1441;48.886;8.728;2023-08-31T15:08:16;5.90;;;1.63;;
2866;SDS011;1441;48.886;8.728;2023-08-31T15:10:41;8.20;;;1.70;;
2866;SDS011;1441;48.886;8.728;2023-08-31T15:13:07;4.90;;;2.00;;
2866;SDS011;1441;48.886;8.728;2023-08-31T15:15:35;6.57;;;2.10;;
2866;SDS011;1441;48.886;8.728;2023-08-31T15:18:01;4.40;;;2.33;;
2866;SDS011;1441;48.886;8.728;2023-08-31T15:20:26;5.37;;;1.90;;
2866;SDS011;1441;48.886;8.728;2023-08-31T15:22:52;5.40;;;2.10;;
2866;SDS011;1441;48.886;8.728;2023-08-31T15:25:18;7.33;;;2.47;;